createdAt,value
2023-05-01T00:00:48.202Z,1.48
2023-05-01T00:03:18.263Z,1.47
2023-05-01T00:05:48.527Z,1.44
2023-05-01T00:08:20.716Z,1.45
2023-05-01T00:10:50.318Z,1.55
2023-05-01T00:13:22.169Z,1.52
2023-05-01T00:15:51.826Z,1.46
2023-05-01T00:18:21.749Z,1.50
2023-05-01T00:20:51.629Z,1.52
2023-05-01T00:23:23.910Z,1.57
2023-05-01T00:25:53.426Z,1.60
2023-05-01T00:28:22.958Z,1.65
2023-05-01T00:30:52.486Z,1.72
2023-05-01T00:33:22.103Z,1.71
2023-05-01T00:35:51.675Z,1.60
2023-05-01T00:38:24.362Z,1.52
2023-05-01T00:40:53.871Z,1.40
2023-05-01T00:43:23.703Z,1.37
2023-05-01T00:45:53.605Z,1.54
2023-05-01T00:48:23.472Z,1.71
2023-05-01T00:50:53.141Z,1.55
2023-05-01T00:53:26.874Z,1.35
2023-05-01T00:55:57.596Z,1.24
2023-05-01T00:58:27.196Z,1.14
2023-05-01T01:00:57.467Z,1.01
2023-05-01T01:03:28.048Z,0.97
2023-05-01T01:06:01.992Z,0.89
2023-05-01T01:08:41.474Z,0.94
2023-05-01T01:11:18.078Z,0.98
2023-05-01T01:13:55.628Z,0.87
2023-05-01T01:16:34.742Z,0.80
2023-05-01T01:19:19.391Z,0.73
2023-05-01T01:21:52.794Z,0.63
2023-05-01T01:24:39.323Z,0.55
2023-05-01T01:27:38.328Z,0.52
2023-05-01T01:30:53.207Z,0.60
2023-05-01T01:33:48.526Z,0.67
2023-05-01T01:36:25.335Z,0.73
2023-05-01T01:39:01.083Z,0.75
2023-05-01T01:41:36.304Z,0.67
2023-05-01T01:44:12.218Z,0.76
2023-05-01T01:46:45.597Z,0.85
2023-05-01T01:49:22.242Z,0.83
2023-05-01T01:51:56.196Z,0.83
2023-05-01T01:54:30.838Z,0.81
2023-05-01T01:57:04.300Z,0.71
2023-05-01T01:59:36.467Z,0.63
2023-05-01T02:02:07.726Z,0.63
2023-05-01T02:04:39.155Z,0.52
2023-05-01T02:07:14.462Z,0.46
2023-05-01T02:09:44.907Z,0.53
2023-05-01T02:12:17.126Z,0.46
2023-05-01T02:14:47.937Z,0.47
2023-05-01T02:17:18.614Z,0.50
2023-05-01T02:19:48.889Z,0.46
2023-05-01T02:22:23.360Z,0.43
2023-05-01T02:24:52.903Z,0.33
2023-05-01T02:27:23.938Z,0.27
2023-05-01T02:29:55.197Z,0.34
2023-05-01T02:32:25.013Z,0.43
2023-05-01T02:34:54.794Z,0.39
2023-05-01T02:37:27.071Z,0.35
2023-05-01T02:39:57.143Z,0.38
2023-05-01T02:42:28.714Z,0.36
2023-05-01T02:45:03.170Z,0.38
2023-05-01T02:47:35.342Z,0.36
2023-05-01T02:50:07.056Z,0.30
2023-05-01T02:52:40.162Z,0.24
2023-05-01T02:55:11.266Z,0.13
2023-05-01T02:57:41.525Z,0.13
2023-05-01T03:00:14.183Z,0.08
2023-05-01T03:02:44.031Z,0.01
2023-05-01T03:05:13.911Z,-0.01
2023-05-01T03:07:46.398Z,0.03
2023-05-01T03:10:16.577Z,-0.01
2023-05-01T03:12:46.127Z,-0.02
2023-05-01T03:15:15.749Z,-0.02
2023-05-01T03:17:45.342Z,-0.05
2023-05-01T03:20:16.299Z,-0.20
2023-05-01T03:22:48.380Z,-0.24
2023-05-01T03:25:18.204Z,-0.12
2023-05-01T03:27:47.866Z,-0.14
2023-05-01T03:30:17.851Z,-0.21
2023-05-01T03:32:47.393Z,-0.08
2023-05-01T03:35:17.060Z,-0.05
2023-05-01T03:37:49.390Z,0.08
2023-05-01T03:40:19.580Z,0.34
2023-05-01T03:42:49.124Z,0.68
2023-05-01T03:45:18.916Z,1.04
2023-05-01T03:47:48.478Z,1.44
2023-05-01T03:50:18.062Z,2.05
2023-05-01T03:52:50.198Z,2.66
2023-05-01T03:55:19.876Z,2.90
2023-05-01T03:57:50.080Z,2.85
2023-05-01T04:00:19.791Z,3.06
2023-05-01T04:02:49.689Z,2.94
2023-05-01T04:05:19.487Z,3.21
2023-05-01T04:07:51.616Z,3.38
2023-05-01T04:10:21.264Z,3.69
2023-05-01T04:12:50.777Z,3.68
2023-05-01T04:15:20.651Z,4.14
2023-05-01T04:17:50.399Z,6.06
2023-05-01T04:20:20.442Z,7.82
2023-05-01T04:22:52.791Z,7.30
2023-05-01T04:25:22.314Z,7.12
2023-05-01T04:27:51.867Z,5.86
2023-05-01T04:30:21.634Z,6.32
2023-05-01T04:32:51.249Z,8.64
2023-05-01T04:35:20.940Z,10.53
2023-05-01T04:37:53.067Z,9.91
2023-05-01T04:40:22.687Z,9.33
2023-05-01T04:42:52.214Z,10.26
2023-05-01T04:45:21.744Z,10.79
2023-05-01T04:47:51.314Z,10.77
2023-05-01T04:50:20.886Z,12.45
2023-05-01T04:52:53.466Z,12.56
2023-05-01T04:55:23.046Z,12.05
2023-05-01T04:57:52.578Z,13.14
2023-05-01T05:00:22.301Z,12.02
2023-05-01T05:02:51.963Z,11.27
2023-05-01T05:05:21.589Z,9.83
2023-05-01T05:07:53.707Z,10.59
2023-05-01T05:10:23.592Z,11.89
2023-05-01T05:12:53.146Z,12.78
2023-05-01T05:15:22.805Z,13.15
2023-05-01T05:17:53.914Z,11.71
2023-05-01T05:20:24.647Z,12.12
2023-05-01T05:22:56.760Z,13.55
2023-05-01T05:25:27.219Z,15.13
2023-05-01T05:27:56.754Z,14.38
2023-05-01T05:30:26.262Z,16.48
2023-05-01T05:32:55.885Z,14.27
2023-05-01T05:35:25.510Z,13.88
2023-05-01T05:37:57.619Z,13.42
2023-05-01T05:40:27.227Z,14.37
2023-05-01T05:42:56.766Z,14.78
2023-05-01T05:45:26.273Z,15.81
2023-05-01T05:47:55.930Z,17.09
2023-05-01T05:50:25.478Z,14.60
2023-05-01T05:52:57.553Z,14.36
2023-05-01T05:55:28.250Z,16.77
2023-05-01T05:57:57.826Z,15.82
2023-05-01T06:00:27.493Z,15.69
2023-05-01T06:02:57.221Z,18.08
2023-05-01T06:05:27.008Z,18.76
2023-05-01T06:07:59.857Z,16.12
2023-05-01T06:10:29.415Z,19.32
2023-05-01T06:13:03.168Z,18.41
2023-05-01T06:15:43.965Z,19.25
2023-05-01T06:18:14.924Z,20.08
2023-05-01T06:20:44.574Z,20.68
2023-05-01T06:23:16.704Z,19.52
2023-05-01T06:25:46.418Z,20.44
2023-05-01T06:28:16.177Z,19.68
2023-05-01T06:30:45.785Z,20.78
2023-05-01T06:33:15.387Z,20.16
2023-05-01T06:35:44.948Z,19.46
2023-05-01T06:38:17.055Z,18.29
2023-05-01T06:40:47.668Z,17.96
2023-05-01T06:43:17.322Z,17.89
2023-05-01T06:45:46.878Z,19.61
2023-05-01T06:48:16.414Z,20.92
2023-05-01T06:50:45.943Z,20.26
2023-05-01T06:53:18.081Z,19.08
2023-05-01T06:55:47.694Z,21.30
2023-05-01T07:00:52.095Z,19.69
2023-05-01T07:03:21.921Z,20.05
2023-05-01T07:05:51.579Z,18.90
2023-05-01T07:08:24.454Z,17.66
2023-05-01T07:10:54.469Z,17.69
2023-05-01T07:13:24.075Z,17.78
2023-05-01T07:15:54.740Z,17.49
2023-05-01T07:18:24.387Z,18.98
2023-05-01T07:20:53.984Z,19.30
2023-05-01T07:23:26.259Z,19.07
2023-05-01T07:25:56.181Z,20.23
2023-05-01T07:28:25.776Z,21.63
2023-05-01T07:30:55.473Z,21.87
2023-05-01T07:33:26.699Z,20.56
2023-05-01T07:35:56.656Z,19.46
2023-05-01T07:38:29.155Z,17.87
2023-05-01T07:40:58.887Z,17.45
2023-05-01T07:43:28.454Z,16.73
2023-05-01T07:46:00.556Z,17.58
2023-05-01T07:48:32.004Z,17.46
2023-05-01T07:51:05.287Z,17.40
2023-05-01T07:53:37.522Z,17.52
2023-05-01T07:56:10.404Z,18.50
2023-05-01T07:58:41.693Z,18.79
2023-05-01T08:01:11.966Z,19.62
2023-05-01T08:03:42.298Z,19.97
2023-05-01T08:06:12.029Z,20.10
2023-05-01T08:08:44.186Z,18.88
2023-05-01T08:11:14.926Z,19.44
2023-05-01T08:13:44.523Z,19.77
2023-05-01T08:16:14.337Z,18.11
2023-05-01T08:18:43.976Z,18.42
2023-05-01T08:21:13.652Z,18.42
2023-05-01T08:23:45.750Z,17.77
2023-05-01T08:26:15.280Z,18.37
2023-05-01T08:28:45.126Z,17.70
2023-05-01T08:31:14.708Z,16.94
2023-05-01T08:33:44.764Z,17.60
2023-05-01T08:36:14.604Z,18.81
2023-05-01T08:38:46.792Z,18.58
2023-05-01T08:41:19.485Z,17.67
2023-05-01T08:43:49.233Z,17.66
2023-05-01T08:46:26.184Z,16.78
2023-05-01T08:49:00.746Z,17.64
2023-05-01T08:51:33.884Z,17.80
2023-05-01T08:54:08.487Z,17.72
2023-05-01T08:56:39.090Z,18.16
2023-05-01T08:59:12.391Z,18.08
2023-05-01T09:01:43.882Z,18.64
2023-05-01T09:04:14.772Z,18.66
2023-05-01T09:06:45.285Z,19.83
2023-05-01T09:09:17.456Z,18.65
2023-05-01T09:11:47.714Z,18.76
2023-05-01T09:14:17.473Z,19.23
2023-05-01T09:16:47.261Z,19.34
2023-05-01T09:19:17.035Z,18.33
2023-05-01T09:21:46.642Z,20.23
2023-05-01T09:24:18.808Z,19.54
2023-05-01T09:26:48.972Z,20.71
2023-05-01T09:29:40.448Z,21.59
2023-05-01T09:32:17.940Z,20.31
2023-05-01T09:34:47.843Z,19.76
2023-05-01T09:37:32.306Z,20.26
2023-05-01T09:40:12.988Z,20.77
2023-05-01T09:42:43.811Z,19.29
2023-05-01T09:45:16.878Z,19.26
2023-05-01T09:47:47.029Z,18.61
2023-05-01T09:50:33.285Z,18.89
2023-05-01T09:53:04.981Z,18.21
2023-05-01T09:55:38.853Z,17.61
2023-05-01T09:58:08.429Z,18.32
2023-05-01T10:00:51.593Z,19.44
2023-05-01T10:03:21.450Z,19.96
2023-05-01T10:05:51.095Z,18.96
2023-05-01T10:08:20.841Z,19.97
2023-05-01T10:11:02.914Z,18.51
2023-05-01T10:13:32.565Z,18.30
2023-05-01T10:16:07.528Z,18.16
2023-05-01T10:18:38.127Z,17.36
2023-05-01T10:21:10.150Z,18.65
2023-05-01T10:23:39.735Z,19.93
2023-05-01T10:26:16.834Z,19.86
2023-05-01T10:28:47.560Z,20.44
2023-05-01T10:31:17.915Z,19.50
2023-05-01T10:33:49.147Z,20.45
2023-05-01T10:36:23.622Z,20.42
2023-05-01T10:38:53.260Z,20.35
2023-05-01T10:41:52.787Z,19.94
2023-05-01T10:44:29.160Z,18.99
2023-05-01T10:46:58.745Z,19.81
2023-05-01T10:49:28.316Z,20.86
2023-05-01T10:52:03.820Z,21.80
2023-05-01T10:54:34.119Z,22.04
2023-05-01T10:57:04.933Z,22.02
2023-05-01T11:00:05.100Z,21.63
2023-05-01T11:02:37.243Z,20.33
2023-05-01T11:05:07.620Z,19.64
2023-05-01T11:07:37.463Z,20.42
2023-05-01T11:10:28.849Z,20.70
2023-05-01T11:12:58.519Z,19.41
2023-05-01T11:15:33.933Z,21.01
2023-05-01T11:18:07.384Z,20.89
2023-05-01T11:20:52.030Z,21.49
2023-05-01T11:23:26.692Z,21.27
2023-05-01T11:26:09.845Z,22.00
2023-05-01T11:28:41.283Z,21.80
2023-05-01T11:31:11.717Z,21.10
2023-05-01T11:33:43.909Z,20.81
2023-05-01T11:36:14.348Z,19.68
2023-05-01T11:38:53.081Z,18.77
2023-05-01T11:41:24.032Z,19.96
2023-05-01T11:43:54.422Z,19.61
2023-05-01T11:46:28.024Z,18.97
2023-05-01T11:49:01.600Z,18.65
2023-05-01T11:51:32.127Z,18.96
2023-05-01T11:54:02.576Z,18.56
2023-05-01T11:56:33.075Z,18.12
2023-05-01T11:59:12.578Z,18.02
2023-05-01T12:01:44.595Z,18.10
2023-05-01T12:04:29.658Z,17.63
2023-05-01T12:07:01.494Z,17.48
2023-05-01T12:09:32.070Z,17.36
2023-05-01T12:12:03.578Z,17.27
2023-05-01T12:14:33.302Z,17.26
2023-05-01T12:17:04.231Z,17.33
2023-05-01T12:19:37.073Z,17.44
2023-05-01T12:22:10.233Z,17.57
2023-05-01T12:24:40.241Z,17.72
2023-05-01T12:27:10.730Z,17.94
2023-05-01T12:29:44.921Z,17.70
2023-05-01T12:32:14.526Z,17.81
2023-05-01T12:34:47.035Z,17.83
2023-05-01T12:37:16.772Z,17.83
2023-05-01T12:39:47.338Z,17.89
2023-05-01T12:42:18.214Z,18.15
2023-05-01T12:44:47.790Z,18.35
2023-05-01T12:47:17.694Z,18.25
2023-05-01T12:49:49.914Z,18.09
2023-05-01T12:52:20.025Z,18.23
2023-05-01T12:54:51.849Z,18.11
2023-05-01T12:57:21.868Z,17.93
2023-05-01T13:00:01.240Z,18.10
2023-05-01T13:02:35.402Z,18.04
2023-05-01T13:05:14.912Z,17.91
2023-05-01T13:07:52.281Z,18.34
2023-05-01T13:10:34.095Z,18.50
2023-05-01T13:13:04.224Z,18.50
2023-05-01T13:15:33.806Z,18.50
2023-05-01T13:20:46.124Z,18.59
2023-05-01T13:23:15.817Z,18.73
2023-05-01T13:25:46.501Z,18.57
2023-05-01T13:28:21.626Z,18.66
2023-05-01T13:30:51.189Z,18.67
2023-05-01T13:33:20.761Z,18.84
2023-05-01T13:35:53.007Z,18.89
2023-05-01T13:38:24.807Z,18.76
2023-05-01T13:40:54.405Z,18.92
2023-05-01T13:43:24.669Z,18.94
2023-05-01T13:45:54.446Z,18.51
2023-05-01T13:48:24.278Z,18.57
2023-05-01T13:50:56.369Z,18.59
2023-05-01T13:53:25.893Z,18.50
2023-05-01T13:55:55.585Z,18.66
2023-05-01T13:58:27.927Z,18.70
2023-05-01T14:00:57.571Z,18.97
2023-05-01T14:03:27.430Z,19.06
2023-05-01T14:05:59.747Z,19.14
2023-05-01T14:08:31.537Z,19.12
2023-05-01T14:11:01.535Z,19.12
2023-05-01T14:13:31.055Z,19.23
2023-05-01T14:16:00.741Z,19.04
2023-05-01T14:18:30.569Z,19.16
2023-05-01T14:21:02.730Z,18.89
2023-05-01T14:23:35.140Z,18.91
2023-05-01T14:26:05.138Z,19.16
2023-05-01T14:28:34.696Z,19.35
2023-05-01T14:31:04.247Z,19.76
2023-05-01T14:33:33.799Z,19.34
2023-05-01T14:36:06.096Z,19.37
2023-05-01T14:38:39.365Z,19.72
2023-05-01T14:41:11.264Z,19.83
2023-05-01T14:43:44.619Z,19.42
2023-05-01T14:46:16.192Z,19.23
2023-05-01T14:48:45.787Z,19.34
2023-05-01T14:51:22.402Z,19.76
2023-05-01T14:53:52.054Z,19.68
2023-05-01T14:56:21.838Z,19.58
2023-05-01T14:58:52.467Z,19.96
2023-05-01T15:01:22.173Z,19.50
2023-05-01T15:03:52.016Z,19.35
2023-05-01T15:06:24.531Z,19.44
2023-05-01T15:08:54.138Z,19.50
2023-05-01T15:11:23.668Z,19.66
2023-05-01T15:13:53.231Z,19.50
2023-05-01T15:16:22.770Z,19.49
2023-05-01T15:18:52.317Z,19.74
2023-05-01T15:21:24.571Z,19.91
2023-05-01T15:23:54.161Z,19.96
2023-05-01T15:26:24.617Z,19.77
2023-05-01T15:28:54.371Z,19.74
2023-05-01T15:31:24.023Z,19.62
2023-05-01T15:33:53.582Z,19.43
2023-05-01T15:36:25.759Z,19.28
2023-05-01T15:38:55.555Z,19.32
2023-05-01T15:41:25.121Z,19.22
2023-05-01T15:43:54.661Z,19.30
2023-05-01T15:46:26.931Z,19.34
2023-05-01T15:48:56.537Z,19.13
2023-05-01T15:51:28.699Z,19.24
2023-05-01T15:53:59.096Z,19.19
2023-05-01T15:56:28.750Z,19.05
2023-05-01T15:58:58.263Z,19.05
2023-05-01T16:01:27.883Z,18.91
2023-05-01T16:03:57.834Z,18.84
2023-05-01T16:06:31.349Z,18.93
2023-05-01T16:09:01.236Z,19.07
2023-05-01T16:11:30.828Z,19.05
2023-05-01T16:14:00.559Z,19.11
2023-05-01T16:16:31.757Z,19.16
2023-05-01T16:19:02.483Z,19.15
2023-05-01T16:21:34.679Z,19.20
2023-05-01T16:24:05.316Z,19.11
2023-05-01T16:26:36.065Z,19.20
2023-05-01T16:29:08.613Z,19.04
2023-05-01T16:31:42.009Z,18.77
2023-05-01T16:34:14.322Z,18.61
2023-05-01T16:36:47.508Z,18.62
2023-05-01T16:39:22.412Z,18.64
2023-05-01T16:41:53.377Z,18.56
2023-05-01T16:44:24.903Z,18.47
2023-05-01T16:46:56.451Z,18.43
2023-05-01T16:49:27.761Z,18.34
2023-05-01T16:52:03.845Z,18.32
2023-05-01T16:54:36.303Z,18.35
2023-05-01T16:57:06.283Z,18.31
2023-05-01T16:59:37.139Z,18.30
2023-05-01T17:02:07.006Z,18.23
2023-05-01T17:04:36.669Z,18.16
2023-05-01T17:07:12.852Z,18.09
2023-05-01T17:09:42.376Z,18.10
2023-05-01T17:12:11.976Z,18.00
2023-05-01T17:14:41.564Z,17.96
2023-05-01T17:17:11.138Z,17.91
2023-05-01T17:19:41.433Z,17.84
2023-05-01T17:22:14.595Z,17.78
2023-05-01T17:24:44.125Z,17.66
2023-05-01T17:27:13.862Z,17.55
2023-05-01T17:29:44.108Z,17.43
2023-05-01T17:32:18.175Z,17.32
2023-05-01T17:34:59.290Z,17.17
2023-05-01T17:37:31.837Z,17.06
2023-05-01T17:40:02.081Z,16.92
2023-05-01T17:42:31.972Z,16.77
2023-05-01T17:45:01.507Z,16.69
2023-05-01T17:47:31.098Z,16.53
2023-05-01T17:50:01.040Z,16.44
2023-05-01T17:52:33.394Z,16.32
2023-05-01T17:55:02.950Z,16.22
2023-05-01T17:57:32.560Z,16.15
2023-05-01T18:00:02.657Z,16.09
2023-05-01T18:02:32.722Z,15.97
2023-05-01T18:05:02.279Z,15.89
2023-05-01T18:07:34.873Z,15.89
2023-05-01T18:10:04.491Z,15.79
2023-05-01T18:12:34.048Z,15.57
2023-05-01T18:15:03.561Z,15.37
2023-05-01T18:17:33.218Z,15.20
2023-05-01T18:20:02.942Z,15.10
2023-05-01T18:22:35.057Z,15.02
2023-05-01T18:25:04.589Z,14.97
2023-05-01T18:27:34.127Z,14.94
2023-05-01T18:30:03.717Z,14.93
2023-05-01T18:32:46.167Z,14.91
2023-05-01T18:35:17.886Z,14.84
2023-05-01T18:37:51.016Z,14.85
2023-05-01T18:40:20.546Z,14.95
2023-05-01T18:42:50.066Z,15.04
2023-05-01T18:45:19.794Z,15.13
2023-05-01T18:47:49.429Z,15.14
2023-05-01T18:50:22.841Z,15.13
2023-05-01T18:52:55.000Z,15.11
2023-05-01T18:55:25.282Z,15.08
2023-05-01T18:57:55.457Z,15.17
2023-05-01T19:00:26.162Z,15.29
2023-05-01T19:02:55.965Z,15.40
2023-05-01T19:05:25.697Z,15.44
2023-05-01T19:08:01.951Z,15.46
2023-05-01T19:10:31.679Z,15.40
2023-05-01T19:13:01.399Z,15.26
2023-05-01T19:15:30.934Z,15.17
2023-05-01T19:18:00.535Z,15.20
2023-05-01T19:20:30.134Z,15.17
2023-05-01T19:23:02.284Z,15.20
2023-05-01T19:25:33.740Z,15.27
2023-05-01T19:28:03.904Z,15.18
2023-05-01T19:30:33.727Z,15.13
2023-05-01T19:33:04.181Z,15.14
2023-05-01T19:35:34.334Z,15.04
2023-05-01T19:38:06.459Z,15.02
2023-05-01T19:40:36.344Z,15.00
2023-05-01T19:43:05.976Z,15.04
2023-05-01T19:45:35.707Z,15.07
2023-05-01T19:48:06.298Z,15.00
2023-05-01T19:50:35.904Z,14.95
2023-05-01T19:53:08.073Z,14.86
2023-05-01T19:55:37.653Z,14.83
2023-05-01T19:58:07.180Z,14.88
2023-05-01T20:00:36.744Z,14.91
2023-05-01T20:03:06.707Z,15.02
2023-05-01T20:05:37.426Z,15.04
2023-05-01T20:08:09.620Z,14.96
2023-05-01T20:10:39.179Z,15.09
2023-05-01T20:13:10.949Z,15.00
2023-05-01T20:15:41.276Z,15.09
2023-05-01T20:18:13.345Z,15.13
2023-05-01T20:20:42.946Z,15.17
2023-05-01T20:23:16.929Z,15.15
2023-05-01T20:25:46.652Z,15.11
2023-05-01T20:28:16.670Z,15.13
2023-05-01T20:30:48.910Z,15.21
2023-05-01T20:33:18.586Z,15.27
2023-05-01T20:35:48.235Z,15.28
2023-05-01T20:38:21.789Z,15.25
2023-05-01T20:40:51.326Z,15.16
2023-05-01T20:43:21.221Z,15.17
2023-05-01T20:45:50.798Z,15.09
2023-05-01T20:48:20.389Z,14.95
2023-05-01T20:50:50.021Z,14.93
2023-05-01T20:53:22.264Z,14.84
2023-05-01T20:55:52.363Z,14.77
2023-05-01T20:58:21.942Z,14.72
2023-05-01T21:00:51.501Z,14.63
2023-05-01T21:03:21.161Z,14.62
2023-05-01T21:05:50.948Z,14.66
2023-05-01T21:08:23.072Z,14.69
2023-05-01T21:10:52.617Z,14.52
2023-05-01T21:13:23.812Z,14.40
2023-05-01T21:15:53.886Z,14.33
2023-05-01T21:18:24.154Z,14.28
2023-05-01T21:20:53.751Z,14.30
2023-05-01T21:23:28.840Z,14.30
2023-05-01T21:25:58.452Z,14.31
2023-05-01T21:28:28.170Z,14.29
2023-05-01T21:30:57.816Z,14.25
2023-05-01T21:33:28.580Z,14.23
2023-05-01T21:35:58.154Z,14.18
2023-05-01T21:38:31.365Z,14.16
2023-05-01T21:41:00.906Z,14.09
2023-05-01T21:43:30.654Z,14.01
2023-05-01T21:46:00.429Z,13.84
2023-05-01T21:48:33.385Z,13.70
2023-05-01T21:51:03.510Z,13.65
2023-05-01T21:53:35.921Z,13.57
2023-05-01T21:56:06.013Z,13.46
2023-05-01T21:58:35.555Z,13.36
2023-05-01T22:01:05.106Z,13.29
2023-05-01T22:03:34.831Z,13.23
2023-05-01T22:06:05.088Z,13.11
2023-05-01T22:08:37.366Z,13.01
2023-05-01T22:11:08.444Z,12.93
2023-05-01T22:16:08.666Z,12.76
2023-05-01T22:18:38.213Z,12.70
2023-05-01T22:21:08.135Z,12.66
2023-05-01T22:23:40.217Z,12.59
2023-05-01T22:26:09.724Z,12.55
2023-05-01T22:28:39.269Z,12.49
2023-05-01T22:31:08.793Z,12.49
2023-05-01T22:33:38.304Z,12.48
2023-05-01T22:36:08.475Z,12.45
2023-05-01T22:38:40.814Z,12.40
2023-05-01T22:41:10.339Z,12.41
2023-05-01T22:43:39.892Z,12.41
2023-05-01T22:46:09.456Z,12.36
2023-05-01T22:48:39.018Z,12.33
2023-05-01T22:51:08.736Z,12.30
2023-05-01T22:53:41.499Z,12.28
2023-05-01T22:56:11.078Z,12.36
2023-05-01T22:58:40.647Z,12.33
2023-05-01T23:01:10.192Z,12.40
2023-05-01T23:03:39.824Z,12.33
2023-05-01T23:06:09.547Z,12.32
2023-05-01T23:08:41.689Z,12.30
2023-05-01T23:11:13.464Z,12.27
2023-05-01T23:13:46.464Z,12.20
2023-05-01T23:16:18.171Z,12.23
2023-05-01T23:18:47.783Z,12.22
2023-05-01T23:21:20.363Z,12.24
2023-05-01T23:23:52.550Z,12.25
2023-05-01T23:26:28.908Z,12.22
2023-05-01T23:29:00.183Z,12.16
2023-05-01T23:31:30.342Z,12.14
2023-05-01T23:33:59.980Z,12.15
2023-05-01T23:36:29.529Z,12.12
2023-05-01T23:39:01.741Z,12.11
2023-05-01T23:41:31.456Z,12.07
2023-05-01T23:44:01.010Z,12.02
2023-05-01T23:46:30.676Z,12.04
2023-05-01T23:49:00.267Z,11.99
2023-05-01T23:51:31.611Z,11.93
2023-05-01T23:54:04.472Z,11.87
2023-05-01T23:56:34.037Z,11.86
2023-05-01T23:59:03.632Z,11.84
